sensor_id;sensor_type;location;lat;lon;timestamp;P1;durP1;ratioP1;P2;durP2;ratioP2
46110;SDS011;31849;55.992;37.252;2022-10-23T00:04:44;9.95;;;6.18;;
46110;SDS011;31849;55.992;37.252;2022-10-23T00:09:48;11.23;;;6.20;;
46110;SDS011;31849;55.992;37.252;2022-10-23T00:14:52;14.13;;;7.75;;
46110;SDS011;31849;55.992;37.252;2022-10-23T00:19:56;15.65;;;8.63;;
46110;SDS011;31849;55.992;37.252;2022-10-23T00:24:59;13.05;;;8.23;;
46110;SDS011;31849;55.992;37.252;2022-10-23T00:30:05;13.80;;;9.00;;
46110;SDS011;31849;55.992;37.252;2022-10-23T00:35:09;14.25;;;8.80;;
46110;SDS011;31849;55.992;37.252;2022-10-23T00:40:13;16.23;;;7.93;;
46110;SDS011;31849;55.992;37.252;2022-10-23T00:45:19;11.43;;;7.30;;
46110;SDS011;31849;55.992;37.252;2022-10-23T00:50:26;12.73;;;7.72;;
46110;SDS011;31849;55.992;37.252;2022-10-23T00:55:32;19.30;;;8.30;;
46110;SDS011;31849;55.992;37.252;2022-10-23T01:00:45;12.82;;;8.02;;
46110;SDS011;31849;55.992;37.252;2022-10-23T01:05:51;14.85;;;8.65;;
46110;SDS011;31849;55.992;37.252;2022-10-23T01:11:00;14.48;;;8.48;;
46110;SDS011;31849;55.992;37.252;2022-10-23T01:16:15;12.18;;;8.20;;
46110;SDS011;31849;55.992;37.252;2022-10-23T01:21:24;12.48;;;7.70;;
46110;SDS011;31849;55.992;37.252;2022-10-23T01:26:37;12.93;;;7.90;;
46110;SDS011;31849;55.992;37.252;2022-10-23T01:31:51;12.88;;;8.10;;
46110;SDS011;31849;55.992;37.252;2022-10-23T01:37:00;13.52;;;8.07;;
46110;SDS011;31849;55.992;37.252;2022-10-23T01:42:07;15.82;;;8.75;;
46110;SDS011;31849;55.992;37.252;2022-10-23T01:47:15;19.52;;;9.07;;
46110;SDS011;31849;55.992;37.252;2022-10-23T01:52:22;16.17;;;9.43;;
46110;SDS011;31849;55.992;37.252;2022-10-23T01:57:26;15.20;;;8.98;;
46110;SDS011;31849;55.992;37.252;2022-10-23T02:02:34;16.70;;;10.75;;
46110;SDS011;31849;55.992;37.252;2022-10-23T02:07:39;16.25;;;10.30;;
46110;SDS011;31849;55.992;37.252;2022-10-23T02:12:46;19.13;;;10.27;;
46110;SDS011;31849;55.992;37.252;2022-10-23T02:18:21;17.15;;;9.65;;
46110;SDS011;31849;55.992;37.252;2022-10-23T02:23:37;20.65;;;10.60;;
46110;SDS011;31849;55.992;37.252;2022-10-23T02:28:47;19.98;;;11.90;;
46110;SDS011;31849;55.992;37.252;2022-10-23T02:33:55;30.23;;;15.30;;
46110;SDS011;31849;55.992;37.252;2022-10-23T02:38:58;26.50;;;14.88;;
46110;SDS011;31849;55.992;37.252;2022-10-23T02:44:04;23.35;;;13.35;;
46110;SDS011;31849;55.992;37.252;2022-10-23T02:49:24;23.90;;;13.13;;
46110;SDS011;31849;55.992;37.252;2022-10-23T02:54:41;17.77;;;10.07;;
46110;SDS011;31849;55.992;37.252;2022-10-23T02:59:56;18.65;;;10.88;;
46110;SDS011;31849;55.992;37.252;2022-10-23T03:05:06;30.73;;;21.30;;
46110;SDS011;31849;55.992;37.252;2022-10-23T03:10:14;25.88;;;17.70;;
46110;SDS011;31849;55.992;37.252;2022-10-23T03:15:18;20.20;;;11.57;;
46110;SDS011;31849;55.992;37.252;2022-10-23T03:20:22;19.52;;;11.73;;
46110;SDS011;31849;55.992;37.252;2022-10-23T03:25:26;19.80;;;13.85;;
46110;SDS011;31849;55.992;37.252;2022-10-23T03:30:30;19.43;;;12.27;;
46110;SDS011;31849;55.992;37.252;2022-10-23T03:35:35;19.83;;;12.32;;
46110;SDS011;31849;55.992;37.252;2022-10-23T03:45:41;22.30;;;10.90;;
46110;SDS011;31849;55.992;37.252;2022-10-23T03:50:46;19.33;;;10.98;;
46110;SDS011;31849;55.992;37.252;2022-10-23T03:55:49;17.00;;;10.07;;
46110;SDS011;31849;55.992;37.252;2022-10-23T04:00:53;19.20;;;10.95;;
46110;SDS011;31849;55.992;37.252;2022-10-23T04:05:58;20.42;;;11.38;;
46110;SDS011;31849;55.992;37.252;2022-10-23T04:11:02;21.70;;;12.00;;
46110;SDS011;31849;55.992;37.252;2022-10-23T04:16:06;21.50;;;11.50;;
46110;SDS011;31849;55.992;37.252;2022-10-23T04:21:10;22.40;;;11.82;;
46110;SDS011;31849;55.992;37.252;2022-10-23T04:26:14;21.45;;;12.38;;
46110;SDS011;31849;55.992;37.252;2022-10-23T04:31:17;27.40;;;12.93;;
46110;SDS011;31849;55.992;37.252;2022-10-23T04:36:23;21.17;;;12.45;;
46110;SDS011;31849;55.992;37.252;2022-10-23T04:41:26;24.17;;;13.30;;
46110;SDS011;31849;55.992;37.252;2022-10-23T04:46:30;22.73;;;13.90;;
46110;SDS011;31849;55.992;37.252;2022-10-23T04:51:35;20.33;;;13.18;;
46110;SDS011;31849;55.992;37.252;2022-10-23T04:56:39;22.00;;;13.25;;
46110;SDS011;31849;55.992;37.252;2022-10-23T05:01:42;24.90;;;15.55;;
46110;SDS011;31849;55.992;37.252;2022-10-23T05:06:47;29.92;;;16.95;;
46110;SDS011;31849;55.992;37.252;2022-10-23T05:16:54;25.02;;;14.18;;
46110;SDS011;31849;55.992;37.252;2022-10-23T05:22:06;24.77;;;13.88;;
46110;SDS011;31849;55.992;37.252;2022-10-23T05:27:10;26.10;;;14.07;;
46110;SDS011;31849;55.992;37.252;2022-10-23T05:32:14;24.02;;;14.73;;
46110;SDS011;31849;55.992;37.252;2022-10-23T05:37:20;28.25;;;14.07;;
46110;SDS011;31849;55.992;37.252;2022-10-23T05:42:23;22.27;;;13.73;;
46110;SDS011;31849;55.992;37.252;2022-10-23T05:47:27;25.02;;;14.45;;
46110;SDS011;31849;55.992;37.252;2022-10-23T05:57:36;28.23;;;14.67;;
46110;SDS011;31849;55.992;37.252;2022-10-23T06:02:40;24.65;;;14.85;;
46110;SDS011;31849;55.992;37.252;2022-10-23T06:07:45;27.58;;;15.05;;
46110;SDS011;31849;55.992;37.252;2022-10-23T06:17:52;23.58;;;13.52;;
46110;SDS011;31849;55.992;37.252;2022-10-23T06:22:57;20.80;;;13.35;;
46110;SDS011;31849;55.992;37.252;2022-10-23T06:33:04;24.80;;;13.38;;
46110;SDS011;31849;55.992;37.252;2022-10-23T06:38:08;19.92;;;13.27;;
46110;SDS011;31849;55.992;37.252;2022-10-23T06:48:15;22.63;;;13.05;;
46110;SDS011;31849;55.992;37.252;2022-10-23T06:53:20;22.98;;;12.38;;
46110;SDS011;31849;55.992;37.252;2022-10-23T06:58:25;18.80;;;12.00;;
46110;SDS011;31849;55.992;37.252;2022-10-23T07:03:29;23.73;;;12.82;;
46110;SDS011;31849;55.992;37.252;2022-10-23T07:08:34;21.58;;;12.63;;
46110;SDS011;31849;55.992;37.252;2022-10-23T07:13:38;19.35;;;11.68;;
46110;SDS011;31849;55.992;37.252;2022-10-23T07:23:48;19.65;;;10.93;;
46110;SDS011;31849;55.992;37.252;2022-10-23T07:28:51;24.27;;;12.38;;
46110;SDS011;31849;55.992;37.252;2022-10-23T07:33:56;22.95;;;12.50;;
46110;SDS011;31849;55.992;37.252;2022-10-23T07:39:01;20.08;;;12.63;;
46110;SDS011;31849;55.992;37.252;2022-10-23T07:44:05;20.52;;;12.10;;
46110;SDS011;31849;55.992;37.252;2022-10-23T07:49:09;20.60;;;11.82;;
46110;SDS011;31849;55.992;37.252;2022-10-23T07:54:15;22.05;;;12.32;;
46110;SDS011;31849;55.992;37.252;2022-10-23T07:59:18;22.05;;;12.20;;
46110;SDS011;31849;55.992;37.252;2022-10-23T08:04:22;21.83;;;12.80;;
46110;SDS011;31849;55.992;37.252;2022-10-23T08:09:26;22.13;;;12.40;;
46110;SDS011;31849;55.992;37.252;2022-10-23T08:19:33;20.88;;;12.73;;
46110;SDS011;31849;55.992;37.252;2022-10-23T08:24:38;22.87;;;12.03;;
46110;SDS011;31849;55.992;37.252;2022-10-23T08:34:45;23.00;;;12.68;;
46110;SDS011;31849;55.992;37.252;2022-10-23T08:39:50;23.45;;;12.95;;
46110;SDS011;31849;55.992;37.252;2022-10-23T08:44:58;24.85;;;13.50;;
46110;SDS011;31849;55.992;37.252;2022-10-23T08:50:09;21.55;;;12.93;;
46110;SDS011;31849;55.992;37.252;2022-10-23T08:55:24;23.97;;;13.27;;
46110;SDS011;31849;55.992;37.252;2022-10-23T09:00:32;25.75;;;13.80;;
46110;SDS011;31849;55.992;37.252;2022-10-23T09:05:38;27.02;;;14.18;;
46110;SDS011;31849;55.992;37.252;2022-10-23T09:10:59;27.42;;;14.35;;
46110;SDS011;31849;55.992;37.252;2022-10-23T09:16:08;28.67;;;14.82;;
46110;SDS011;31849;55.992;37.252;2022-10-23T09:21:16;25.98;;;14.68;;
46110;SDS011;31849;55.992;37.252;2022-10-23T09:31:26;27.43;;;14.33;;
46110;SDS011;31849;55.992;37.252;2022-10-23T09:36:29;31.63;;;15.85;;
46110;SDS011;31849;55.992;37.252;2022-10-23T09:41:37;34.80;;;16.38;;
46110;SDS011;31849;55.992;37.252;2022-10-23T09:46:42;27.05;;;15.57;;
46110;SDS011;31849;55.992;37.252;2022-10-23T09:57:14;30.83;;;16.38;;
46110;SDS011;31849;55.992;37.252;2022-10-23T10:02:25;31.90;;;16.40;;
46110;SDS011;31849;55.992;37.252;2022-10-23T10:07:30;30.02;;;16.65;;
46110;SDS011;31849;55.992;37.252;2022-10-23T10:12:41;31.95;;;16.23;;
46110;SDS011;31849;55.992;37.252;2022-10-23T10:17:54;36.23;;;17.07;;
46110;SDS011;31849;55.992;37.252;2022-10-23T10:23:05;32.45;;;18.17;;
46110;SDS011;31849;55.992;37.252;2022-10-23T10:28:26;33.53;;;16.65;;
46110;SDS011;31849;55.992;37.252;2022-10-23T10:33:42;32.38;;;17.27;;
46110;SDS011;31849;55.992;37.252;2022-10-23T10:38:55;36.22;;;18.33;;
46110;SDS011;31849;55.992;37.252;2022-10-23T10:44:07;37.55;;;18.27;;
46110;SDS011;31849;55.992;37.252;2022-10-23T10:49:22;37.70;;;18.42;;
46110;SDS011;31849;55.992;37.252;2022-10-23T10:54:34;38.03;;;18.95;;
46110;SDS011;31849;55.992;37.252;2022-10-23T10:59:47;43.95;;;19.30;;
46110;SDS011;31849;55.992;37.252;2022-10-23T11:04:59;38.10;;;18.77;;
46110;SDS011;31849;55.992;37.252;2022-10-23T11:10:14;39.78;;;18.98;;
46110;SDS011;31849;55.992;37.252;2022-10-23T11:15:22;40.90;;;19.38;;
46110;SDS011;31849;55.992;37.252;2022-10-23T11:20:33;39.30;;;18.20;;
46110;SDS011;31849;55.992;37.252;2022-10-23T11:25:49;40.38;;;19.67;;
46110;SDS011;31849;55.992;37.252;2022-10-23T11:31:06;39.13;;;18.42;;
46110;SDS011;31849;55.992;37.252;2022-10-23T11:36:19;43.20;;;18.88;;
46110;SDS011;31849;55.992;37.252;2022-10-23T11:41:49;39.90;;;19.23;;
46110;SDS011;31849;55.992;37.252;2022-10-23T11:47:04;41.00;;;19.33;;
46110;SDS011;31849;55.992;37.252;2022-10-23T11:52:19;41.92;;;18.67;;
46110;SDS011;31849;55.992;37.252;2022-10-23T11:57:26;41.55;;;20.58;;
46110;SDS011;31849;55.992;37.252;2022-10-23T12:02:33;48.83;;;20.75;;
46110;SDS011;31849;55.992;37.252;2022-10-23T12:07:39;43.65;;;20.55;;
46110;SDS011;31849;55.992;37.252;2022-10-23T12:12:53;43.35;;;19.70;;
46110;SDS011;31849;55.992;37.252;2022-10-23T12:18:09;43.83;;;18.87;;
46110;SDS011;31849;55.992;37.252;2022-10-23T12:28:50;40.72;;;19.02;;
46110;SDS011;31849;55.992;37.252;2022-10-23T12:34:04;36.63;;;17.70;;
46110;SDS011;31849;55.992;37.252;2022-10-23T12:39:23;37.80;;;18.15;;
46110;SDS011;31849;55.992;37.252;2022-10-23T12:44:28;35.65;;;18.67;;
46110;SDS011;31849;55.992;37.252;2022-10-23T12:54:38;36.13;;;17.67;;
46110;SDS011;31849;55.992;37.252;2022-10-23T12:59:42;42.75;;;19.58;;
46110;SDS011;31849;55.992;37.252;2022-10-23T13:04:48;40.92;;;18.95;;
46110;SDS011;31849;55.992;37.252;2022-10-23T13:09:52;50.47;;;21.25;;
46110;SDS011;31849;55.992;37.252;2022-10-23T13:14:58;45.63;;;20.42;;
46110;SDS011;31849;55.992;37.252;2022-10-23T13:20:14;42.45;;;20.67;;
46110;SDS011;31849;55.992;37.252;2022-10-23T13:25:23;51.47;;;23.70;;
46110;SDS011;31849;55.992;37.252;2022-10-23T13:30:29;41.63;;;21.88;;
46110;SDS011;31849;55.992;37.252;2022-10-23T13:35:36;40.95;;;20.10;;
46110;SDS011;31849;55.992;37.252;2022-10-23T13:40:40;49.40;;;23.20;;
46110;SDS011;31849;55.992;37.252;2022-10-23T13:45:43;50.45;;;21.30;;
46110;SDS011;31849;55.992;37.252;2022-10-23T13:50:49;47.22;;;20.40;;
46110;SDS011;31849;55.992;37.252;2022-10-23T13:55:52;45.38;;;19.73;;
46110;SDS011;31849;55.992;37.252;2022-10-23T14:00:59;41.95;;;19.92;;
46110;SDS011;31849;55.992;37.252;2022-10-23T14:06:06;36.55;;;18.58;;
46110;SDS011;31849;55.992;37.252;2022-10-23T14:11:11;42.47;;;18.92;;
46110;SDS011;31849;55.992;37.252;2022-10-23T14:16:16;42.10;;;20.35;;
46110;SDS011;31849;55.992;37.252;2022-10-23T14:21:24;45.30;;;21.20;;
46110;SDS011;31849;55.992;37.252;2022-10-23T14:26:27;40.60;;;20.48;;
46110;SDS011;31849;55.992;37.252;2022-10-23T14:31:31;52.22;;;22.17;;
46110;SDS011;31849;55.992;37.252;2022-10-23T14:36:36;48.03;;;21.67;;
46110;SDS011;31849;55.992;37.252;2022-10-23T14:41:51;52.55;;;22.58;;
46110;SDS011;31849;55.992;37.252;2022-10-23T14:46:54;43.67;;;20.75;;
46110;SDS011;31849;55.992;37.252;2022-10-23T14:51:59;44.35;;;20.42;;
46110;SDS011;31849;55.992;37.252;2022-10-23T14:57:02;44.00;;;19.77;;
46110;SDS011;31849;55.992;37.252;2022-10-23T15:02:08;43.53;;;18.93;;
46110;SDS011;31849;55.992;37.252;2022-10-23T15:07:13;48.20;;;21.00;;
46110;SDS011;31849;55.992;37.252;2022-10-23T15:12:16;37.67;;;18.63;;
46110;SDS011;31849;55.992;37.252;2022-10-23T15:17:20;35.10;;;17.45;;
46110;SDS011;31849;55.992;37.252;2022-10-23T15:22:25;38.25;;;16.67;;
46110;SDS011;31849;55.992;37.252;2022-10-23T15:27:29;35.08;;;17.20;;
46110;SDS011;31849;55.992;37.252;2022-10-23T15:32:32;31.33;;;15.82;;
46110;SDS011;31849;55.992;37.252;2022-10-23T15:37:37;29.42;;;15.48;;
46110;SDS011;31849;55.992;37.252;2022-10-23T15:42:41;32.78;;;17.13;;
46110;SDS011;31849;55.992;37.252;2022-10-23T15:47:45;36.03;;;16.40;;
46110;SDS011;31849;55.992;37.252;2022-10-23T15:52:50;30.95;;;16.48;;
46110;SDS011;31849;55.992;37.252;2022-10-23T15:57:54;33.33;;;17.40;;
46110;SDS011;31849;55.992;37.252;2022-10-23T16:03:02;38.00;;;17.67;;
46110;SDS011;31849;55.992;37.252;2022-10-23T16:08:07;37.90;;;17.70;;
46110;SDS011;31849;55.992;37.252;2022-10-23T16:13:11;38.47;;;17.55;;
46110;SDS011;31849;55.992;37.252;2022-10-23T16:18:14;36.83;;;17.50;;
46110;SDS011;31849;55.992;37.252;2022-10-23T16:23:20;31.58;;;15.57;;
46110;SDS011;31849;55.992;37.252;2022-10-23T16:28:25;29.75;;;15.77;;
46110;SDS011;31849;55.992;37.252;2022-10-23T16:33:28;36.50;;;17.08;;
46110;SDS011;31849;55.992;37.252;2022-10-23T16:38:33;32.45;;;15.85;;
46110;SDS011;31849;55.992;37.252;2022-10-23T16:43:37;31.42;;;16.13;;
46110;SDS011;31849;55.992;37.252;2022-10-23T16:48:41;31.23;;;16.60;;
46110;SDS011;31849;55.992;37.252;2022-10-23T16:53:46;29.52;;;15.48;;
46110;SDS011;31849;55.992;37.252;2022-10-23T16:58:50;32.60;;;15.77;;
46110;SDS011;31849;55.992;37.252;2022-10-23T17:03:55;30.50;;;16.02;;
46110;SDS011;31849;55.992;37.252;2022-10-23T17:09:01;23.65;;;13.90;;
46110;SDS011;31849;55.992;37.252;2022-10-23T17:14:06;27.90;;;14.98;;
46110;SDS011;31849;55.992;37.252;2022-10-23T17:19:12;29.85;;;14.93;;
46110;SDS011;31849;55.992;37.252;2022-10-23T17:24:40;24.88;;;14.25;;
46110;SDS011;31849;55.992;37.252;2022-10-23T17:29:50;24.85;;;14.18;;
46110;SDS011;31849;55.992;37.252;2022-10-23T17:34:54;28.40;;;14.80;;
46110;SDS011;31849;55.992;37.252;2022-10-23T17:39:59;23.20;;;13.95;;
46110;SDS011;31849;55.992;37.252;2022-10-23T17:45:04;27.00;;;14.27;;
46110;SDS011;31849;55.992;37.252;2022-10-23T17:50:08;26.48;;;14.32;;
46110;SDS011;31849;55.992;37.252;2022-10-23T17:55:16;18.73;;;12.63;;
46110;SDS011;31849;55.992;37.252;2022-10-23T18:00:19;22.05;;;13.52;;
46110;SDS011;31849;55.992;37.252;2022-10-23T18:05:23;24.02;;;12.90;;
46110;SDS011;31849;55.992;37.252;2022-10-23T18:10:28;27.55;;;13.68;;
46110;SDS011;31849;55.992;37.252;2022-10-23T18:20:39;24.05;;;13.13;;
46110;SDS011;31849;55.992;37.252;2022-10-23T18:25:44;24.73;;;13.50;;
46110;SDS011;31849;55.992;37.252;2022-10-23T18:35:57;21.80;;;11.98;;
46110;SDS011;31849;55.992;37.252;2022-10-23T18:41:02;23.17;;;12.70;;
46110;SDS011;31849;55.992;37.252;2022-10-23T18:46:06;19.13;;;11.68;;
46110;SDS011;31849;55.992;37.252;2022-10-23T18:51:13;22.43;;;12.53;;
46110;SDS011;31849;55.992;37.252;2022-10-23T18:56:20;22.00;;;12.30;;
46110;SDS011;31849;55.992;37.252;2022-10-23T19:01:27;24.20;;;11.70;;
46110;SDS011;31849;55.992;37.252;2022-10-23T19:06:33;21.20;;;11.27;;
46110;SDS011;31849;55.992;37.252;2022-10-23T19:11:39;18.80;;;10.52;;
46110;SDS011;31849;55.992;37.252;2022-10-23T19:16:45;18.50;;;10.05;;
46110;SDS011;31849;55.992;37.252;2022-10-23T19:21:58;15.63;;;10.23;;
46110;SDS011;31849;55.992;37.252;2022-10-23T19:27:05;17.90;;;10.77;;
46110;SDS011;31849;55.992;37.252;2022-10-23T19:32:09;18.55;;;10.55;;
46110;SDS011;31849;55.992;37.252;2022-10-23T19:37:13;19.53;;;11.53;;
46110;SDS011;31849;55.992;37.252;2022-10-23T19:42:18;20.70;;;11.80;;
46110;SDS011;31849;55.992;37.252;2022-10-23T19:47:22;19.92;;;11.70;;
46110;SDS011;31849;55.992;37.252;2022-10-23T19:52:25;18.15;;;11.27;;
46110;SDS011;31849;55.992;37.252;2022-10-23T19:57:31;19.45;;;10.90;;
46110;SDS011;31849;55.992;37.252;2022-10-23T20:02:35;26.63;;;15.32;;
46110;SDS011;31849;55.992;37.252;2022-10-23T20:07:39;17.38;;;10.48;;
46110;SDS011;31849;55.992;37.252;2022-10-23T20:12:44;19.95;;;10.95;;
46110;SDS011;31849;55.992;37.252;2022-10-23T20:18:03;18.98;;;11.20;;
46110;SDS011;31849;55.992;37.252;2022-10-23T20:23:07;16.90;;;10.60;;
46110;SDS011;31849;55.992;37.252;2022-10-23T20:28:12;21.65;;;11.05;;
46110;SDS011;31849;55.992;37.252;2022-10-23T20:33:16;18.70;;;10.23;;
46110;SDS011;31849;55.992;37.252;2022-10-23T20:38:19;19.30;;;11.02;;
46110;SDS011;31849;55.992;37.252;2022-10-23T20:43:25;20.67;;;10.07;;
46110;SDS011;31849;55.992;37.252;2022-10-23T20:48:28;21.75;;;10.38;;
46110;SDS011;31849;55.992;37.252;2022-10-23T20:53:36;22.05;;;10.55;;
46110;SDS011;31849;55.992;37.252;2022-10-23T20:58:41;27.65;;;11.25;;
46110;SDS011;31849;55.992;37.252;2022-10-23T21:03:48;20.67;;;9.98;;
46110;SDS011;31849;55.992;37.252;2022-10-23T21:08:53;23.45;;;11.05;;
46110;SDS011;31849;55.992;37.252;2022-10-23T21:13:59;25.55;;;11.50;;
46110;SDS011;31849;55.992;37.252;2022-10-23T21:19:05;22.48;;;11.32;;
46110;SDS011;31849;55.992;37.252;2022-10-23T21:24:15;25.75;;;10.98;;
46110;SDS011;31849;55.992;37.252;2022-10-23T21:29:20;26.20;;;12.00;;
46110;SDS011;31849;55.992;37.252;2022-10-23T21:34:24;27.27;;;12.00;;
46110;SDS011;31849;55.992;37.252;2022-10-23T21:39:28;22.05;;;11.00;;
46110;SDS011;31849;55.992;37.252;2022-10-23T21:44:33;24.27;;;11.20;;
46110;SDS011;31849;55.992;37.252;2022-10-23T21:49:37;22.33;;;10.88;;
46110;SDS011;31849;55.992;37.252;2022-10-23T21:54:42;22.33;;;10.10;;
46110;SDS011;31849;55.992;37.252;2022-10-23T21:59:47;19.63;;;10.00;;
46110;SDS011;31849;55.992;37.252;2022-10-23T22:04:51;19.40;;;10.48;;
46110;SDS011;31849;55.992;37.252;2022-10-23T22:09:54;19.92;;;9.82;;
46110;SDS011;31849;55.992;37.252;2022-10-23T22:14:59;23.80;;;10.30;;
46110;SDS011;31849;55.992;37.252;2022-10-23T22:20:03;17.75;;;9.68;;
46110;SDS011;31849;55.992;37.252;2022-10-23T22:25:08;18.42;;;9.77;;
46110;SDS011;31849;55.992;37.252;2022-10-23T22:30:14;19.20;;;9.60;;
46110;SDS011;31849;55.992;37.252;2022-10-23T22:40:21;20.30;;;10.48;;
46110;SDS011;31849;55.992;37.252;2022-10-23T22:45:26;22.10;;;10.85;;
46110;SDS011;31849;55.992;37.252;2022-10-23T22:55:32;19.50;;;10.07;;
46110;SDS011;31849;55.992;37.252;2022-10-23T23:00:38;19.58;;;10.80;;
46110;SDS011;31849;55.992;37.252;2022-10-23T23:05:44;16.17;;;9.98;;
46110;SDS011;31849;55.992;37.252;2022-10-23T23:10:52;19.23;;;10.50;;
46110;SDS011;31849;55.992;37.252;2022-10-23T23:15:58;18.48;;;9.88;;
46110;SDS011;31849;55.992;37.252;2022-10-23T23:21:01;17.30;;;9.27;;
46110;SDS011;31849;55.992;37.252;2022-10-23T23:26:06;16.08;;;9.50;;
46110;SDS011;31849;55.992;37.252;2022-10-23T23:31:12;17.38;;;9.63;;
46110;SDS011;31849;55.992;37.252;2022-10-23T23:36:20;19.52;;;9.75;;
46110;SDS011;31849;55.992;37.252;2022-10-23T23:41:25;19.58;;;9.88;;
46110;SDS011;31849;55.992;37.252;2022-10-23T23:46:31;19.13;;;9.95;;
46110;SDS011;31849;55.992;37.252;2022-10-23T23:56:38;15.15;;;8.93;;
